»·PEaware :: DAL1914 KSLC-KBOI

DAL1914 :: KSLC-KBOI

FLIGHT INFORMATION

Flight Status: Arrived
Operator:
Delta Air Lines
More flights by this operator :: More flights under this callsign
Pilot: Joe P. (13940)
Aircraft: BOEING 737-700
(B737)
More flights by this aircraft type
Origin: KSLC Salt Lake City Intl
United States
Destination: KBOI Boise Air Terminal/Gowen
United States
More flights between these airports :: More routes between these airports
Route: CGULL1 TWF BROPH SPUUD3
File this flight plan on PilotEdge
Remarks: KTWF -PBN / A1B1C1D1L1O1S1 NAV / RNVD1E2A1 DOF / 180808 REG / N389DA RVR / 200 PER / C
Altitude:
(Current/Filed)
280ft
Speed:
(Current/Filed)
476kts
Departed: 07-Aug-18 07:27 PM
Arrived: 07-Aug-18 08:11 PM
Distance/Time
Traveled:
252nm/0:44
Distance/Time
To Go:
Arrived

Flight Plot

Page will automatically refresh every two minutes.

Flight plan parsing failed; only flown route is shown


Map Options




Map Legend


Flown Route
Filed Route
Departure Airport
Arrival Airport
Navaid (VOR, NDB)
Fix

Horizontal Profiles

Position Reports

Time Latitude Longitude Heading Altitude Ground
Speed
07-Aug-18 18:14 40.789075 -111.985536 130 4235ft 0kts
07-Aug-18 18:15 40.789075 -111.985536 130 4235ft 0kts
07-Aug-18 18:16 40.789075 -111.985536 130 4235ft 0kts
07-Aug-18 18:17 40.789075 -111.985536 130 4235ft 0kts
07-Aug-18 18:18 40.789075 -111.985536 130 4235ft 0kts
07-Aug-18 18:19 40.789075 -111.985536 130 4235ft 0kts
07-Aug-18 18:20 40.789075 -111.985536 130 4235ft 0kts
07-Aug-18 18:21 40.789075 -111.985536 130 4235ft 0kts
07-Aug-18 18:22 40.789075 -111.985536 130 4235ft 0kts
07-Aug-18 18:23 40.789075 -111.985536 130 4235ft 0kts
07-Aug-18 18:24 40.789075 -111.985536 130 4235ft 0kts
07-Aug-18 18:25 40.789075 -111.985536 130 4235ft 0kts
07-Aug-18 18:26 40.789075 -111.985536 130 4235ft 0kts
07-Aug-18 18:27 40.789075 -111.985536 130 4235ft 0kts
07-Aug-18 18:28 40.789075 -111.985536 130 4235ft 0kts
07-Aug-18 18:29 40.789075 -111.985536 130 4235ft 0kts
07-Aug-18 18:30 40.789075 -111.985536 130 4235ft 0kts
07-Aug-18 18:31 40.789075 -111.985536 130 4235ft 0kts
07-Aug-18 18:32 40.789075 -111.985536 130 4235ft 0kts
07-Aug-18 18:33 40.789075 -111.985536 130 4235ft 0kts
07-Aug-18 18:34 40.789075 -111.985536 130 4235ft 0kts
07-Aug-18 18:35 40.789075 -111.985536 130 4235ft 0kts
07-Aug-18 18:36 40.789075 -111.985536 130 4235ft 0kts
07-Aug-18 18:37 40.789075 -111.985536 130 4235ft 0kts
07-Aug-18 18:38 40.789075 -111.985536 130 4235ft 0kts
07-Aug-18 18:39 40.789075 -111.985536 130 4235ft 0kts
07-Aug-18 18:40 40.789075 -111.985536 130 4235ft 0kts
07-Aug-18 18:41 40.789075 -111.985536 130 4235ft 0kts
07-Aug-18 18:42 40.789075 -111.985536 130 4235ft 0kts
07-Aug-18 18:43 40.789075 -111.985536 130 4235ft 0kts
07-Aug-18 18:44 40.789075 -111.985536 130 4235ft 0kts
07-Aug-18 18:45 40.789075 -111.985536 130 4235ft 0kts
07-Aug-18 18:46 40.789075 -111.985536 130 4235ft 0kts
07-Aug-18 18:47 40.789075 -111.985536 130 4235ft 0kts
07-Aug-18 18:48 40.789075 -111.985536 130 4235ft 0kts
07-Aug-18 18:49 40.789075 -111.985536 130 4235ft 0kts
07-Aug-18 18:50 40.789075 -111.985536 130 4235ft 0kts
07-Aug-18 18:51 40.789075 -111.985536 130 4235ft 0kts
07-Aug-18 18:52 40.789075 -111.985536 130 4235ft 0kts
07-Aug-18 18:53 40.789075 -111.985536 130 4235ft 0kts
07-Aug-18 18:54 40.789075 -111.985536 130 4235ft 0kts
07-Aug-18 18:55 40.789075 -111.985536 130 4235ft 0kts
07-Aug-18 18:56 40.789075 -111.985536 130 4235ft 0kts
07-Aug-18 18:57 40.789075 -111.985536 130 4235ft 0kts
07-Aug-18 18:58 40.789075 -111.985536 130 4235ft 0kts
07-Aug-18 18:59 40.789075 -111.985536 130 4235ft 0kts
07-Aug-18 19:00 40.789075 -111.985536 130 4235ft 0kts
07-Aug-18 19:01 40.789075 -111.985536 130 4235ft 0kts
07-Aug-18 19:02 40.789075 -111.985536 130 4235ft 0kts
07-Aug-18 19:03 40.789075 -111.985536 130 4235ft 0kts
07-Aug-18 19:04 40.789075 -111.985536 130 4235ft 0kts
07-Aug-18 19:05 40.789075 -111.985536 130 4235ft 0kts
07-Aug-18 19:06 40.789075 -111.985536 130 4235ft 0kts
07-Aug-18 19:07 40.789075 -111.985536 130 4235ft 0kts
07-Aug-18 19:08 40.789075 -111.985536 130 4235ft 0kts
07-Aug-18 19:09 40.789075 -111.985536 130 4235ft 0kts
07-Aug-18 19:10 40.789075 -111.985536 130 4235ft 0kts
07-Aug-18 19:11 40.789075 -111.985536 130 4235ft 0kts
07-Aug-18 19:12 40.789075 -111.985536 130 4235ft 0kts
07-Aug-18 19:13 40.789394 -111.985970 142 4235ft 2kts
07-Aug-18 19:14 40.789827 -111.985926 238 4235ft 0kts
07-Aug-18 19:15 40.789827 -111.985926 238 4235ft 0kts
07-Aug-18 19:16 40.789827 -111.985926 238 4235ft 0kts
07-Aug-18 19:17 40.789827 -111.985926 238 4235ft 0kts
07-Aug-18 19:18 40.789827 -111.985926 238 4235ft 0kts
07-Aug-18 19:19 40.789826 -111.985926 238 4235ft 0kts
07-Aug-18 19:20 40.789763 -111.986791 290 4235ft 9kts
07-Aug-18 19:21 40.789610 -111.989677 175 4235ft 10kts
07-Aug-18 19:22 40.786721 -111.992673 264 4235ft 22kts
07-Aug-18 19:23 40.784583 -111.994456 174 4235ft 12kts
07-Aug-18 19:24 40.779271 -111.994344 174 4235ft 20kts
07-Aug-18 19:25 40.775328 -111.994096 242 4235ft 0kts
07-Aug-18 19:26 40.775279 -111.994231 247 4235ft 0kts
07-Aug-18 19:27 40.775458 -111.995668 353 4235ft 0kts
07-Aug-18 19:28 40.795819 -111.997958 354 4387ft 177kts
07-Aug-18 19:29 40.827060 -112.041915 292 7078ft 213kts
07-Aug-18 19:30 40.852680 -112.127525 292 9289ft 266kts
07-Aug-18 19:31 40.885969 -112.216150 314 11508ft 272kts
07-Aug-18 19:32 40.945998 -112.284535 318 13961ft 316kts
07-Aug-18 19:33 41.020239 -112.369184 318 15611ft 370kts
07-Aug-18 19:34 41.102820 -112.454211 326 18252ft 383kts
07-Aug-18 19:35 41.193262 -112.532613 320 20538ft 394kts
07-Aug-18 19:36 41.280347 -112.624527 315 22584ft 404kts
07-Aug-18 19:37 41.357524 -112.735788 311 23398ft 413kts
07-Aug-18 19:38 41.434536 -112.850639 310 25222ft 420kts
07-Aug-18 19:39 41.512051 -112.969732 310 26778ft 429kts
07-Aug-18 19:40 41.589972 -113.089947 310 28104ft 428kts
07-Aug-18 19:41 41.667732 -113.209666 310 28115ft 426kts
07-Aug-18 19:42 41.745553 -113.329866 309 28118ft 427kts
07-Aug-18 19:43 41.823310 -113.450724 309 28117ft 428kts
07-Aug-18 19:44 41.901115 -113.572225 309 28116ft 428kts
07-Aug-18 19:45 41.978888 -113.693894 309 28115ft 429kts
07-Aug-18 19:46 42.056401 -113.815850 309 28113ft 429kts
07-Aug-18 19:47 42.133648 -113.938332 309 28113ft 429kts
07-Aug-18 19:48 42.211226 -114.061283 309 28114ft 429kts
07-Aug-18 19:49 42.288439 -114.183561 309 28115ft 429kts
07-Aug-18 19:50 42.365964 -114.306698 309 28118ft 429kts
07-Aug-18 19:51 42.443041 -114.430276 309 28119ft 430kts
07-Aug-18 19:52 42.520295 -114.553704 310 28118ft 427kts
07-Aug-18 19:53 42.596155 -114.674493 309 27872ft 414kts
07-Aug-18 19:54 42.668965 -114.791580 309 25932ft 399kts
07-Aug-18 19:55 42.740573 -114.904857 312 23877ft 391kts
07-Aug-18 19:56 42.815077 -115.010271 312 21855ft 382kts
07-Aug-18 19:57 42.887187 -115.114097 312 19868ft 373kts
07-Aug-18 19:58 42.957781 -115.215904 312 18080ft 364kts
07-Aug-18 19:59 43.026695 -115.316119 312 16384ft 359kts
07-Aug-18 20:00 43.094176 -115.414872 312 14739ft 350kts
07-Aug-18 20:01 43.159425 -115.510388 313 13163ft 337kts
07-Aug-18 20:02 43.222818 -115.603279 313 11637ft 328kts
07-Aug-18 20:03 43.284557 -115.692986 316 10162ft 316kts
07-Aug-18 20:04 43.343312 -115.767513 317 9319ft 272kts
07-Aug-18 20:05 43.398664 -115.838645 317 7720ft 259kts
07-Aug-18 20:06 43.445126 -115.898773 317 7209ft 211kts
07-Aug-18 20:07 43.477517 -115.964189 295 6255ft 204kts
07-Aug-18 20:08 43.499399 -116.029962 296 5566ft 179kts
07-Aug-18 20:09 43.521022 -116.092931 296 4622ft 182kts
07-Aug-18 20:10 43.541187 -116.151777 296 3732ft 159kts
07-Aug-18 20:11 43.559843 -116.206542 296 2871ft 153kts
07-Aug-18 20:12 43.567864 -116.229108 340 2842ft 11kts
07-Aug-18 20:13 43.568162 -116.229068 20 2842ft 0kts
07-Aug-18 20:14 43.568163 -116.229067 20 2842ft 0kts
07-Aug-18 20:15 43.568369 -116.227967 113 2842ft 12kts
07-Aug-18 20:16 43.567200 -116.223682 80 2842ft 12kts
07-Aug-18 20:17 43.566129 -116.219267 114 2842ft 14kts
07-Aug-18 20:18 43.567242 -116.218383 266 2842ft 2kts
07-Aug-18 20:19 43.567239 -116.218454 265 2842ft 0kts
07-Aug-18 20:20 43.567239 -116.218454 265 2842ft 0kts
07-Aug-18 20:21 43.567239 -116.218454 265 2842ft 0kts
07-Aug-18 20:22 43.567239 -116.218454 265 2842ft 0kts
07-Aug-18 20:23 43.567239 -116.218454 265 2842ft 0kts
07-Aug-18 20:24 43.567239 -116.218454 265 2842ft 0kts
07-Aug-18 20:25 43.567239 -116.218454 265 2842ft 0kts
07-Aug-18 20:26 43.567239 -116.218454 265 2842ft 0kts

Navigation Log

Ident Type
Flight plan parsing failed, navigation log unavailable